createdAt,value
2022-07-30T00:00:32.388Z,26.18
2022-07-30T00:03:00.604Z,26.15
2022-07-30T00:05:28.685Z,26.14
2022-07-30T00:07:56.778Z,26.12
2022-07-30T00:10:24.875Z,26.11
2022-07-30T00:12:52.903Z,26.09
2022-07-30T00:15:21.010Z,26.08
2022-07-30T00:17:50.508Z,25.90
2022-07-30T00:20:18.703Z,26.04
2022-07-30T00:22:47.335Z,26.03
2022-07-30T00:25:16.062Z,26.02
2022-07-30T00:27:45.443Z,26.00
2022-07-30T00:30:14.456Z,25.97
2022-07-30T00:32:44.517Z,25.97
2022-07-30T00:35:14.341Z,25.97
2022-07-30T00:37:42.629Z,25.93
2022-07-30T00:40:11.230Z,25.94
2022-07-30T00:42:41.446Z,25.67
2022-07-30T00:45:10.848Z,25.93
2022-07-30T00:47:39.841Z,25.92
2022-07-30T00:50:10.641Z,25.91
2022-07-30T00:52:40.783Z,25.89
2022-07-30T00:55:10.930Z,25.88
2022-07-30T00:57:39.302Z,25.87
2022-07-30T01:00:11.731Z,25.88
2022-07-30T01:02:41.139Z,25.79
2022-07-30T01:05:10.167Z,25.86
2022-07-30T01:07:39.989Z,25.86
2022-07-30T01:10:09.748Z,25.85
2022-07-30T01:12:38.340Z,25.84
2022-07-30T01:15:08.697Z,25.85
2022-07-30T01:17:37.132Z,25.85
2022-07-30T01:20:06.870Z,25.85
2022-07-30T01:22:51.785Z,25.61
2022-07-30T01:25:31.406Z,25.84
2022-07-30T01:28:04.437Z,25.74
2022-07-30T01:30:36.828Z,25.83
2022-07-30T01:33:07.225Z,25.82
2022-07-30T01:35:38.041Z,25.58
2022-07-30T01:38:07.768Z,25.81
2022-07-30T01:40:38.485Z,25.81
2022-07-30T01:43:09.776Z,25.66
2022-07-30T01:45:42.404Z,25.66
2022-07-30T01:48:14.776Z,25.56
2022-07-30T01:50:46.601Z,25.81
2022-07-30T01:53:17.900Z,25.78
2022-07-30T01:55:47.701Z,25.77
2022-07-30T01:58:21.860Z,25.76
2022-07-30T02:00:58.339Z,25.75
2022-07-30T02:03:28.167Z,25.73
2022-07-30T02:06:01.922Z,25.75
2022-07-30T02:08:40.095Z,25.75
2022-07-30T02:11:10.634Z,25.74
2022-07-30T02:13:49.744Z,25.74
2022-07-30T02:16:23.689Z,25.73
2022-07-30T02:18:59.244Z,25.75
2022-07-30T02:21:32.168Z,25.75
2022-07-30T02:24:09.162Z,25.74
2022-07-30T02:26:39.345Z,25.75
2022-07-30T02:29:11.549Z,25.75
2022-07-30T02:31:42.859Z,25.75
2022-07-30T02:34:14.186Z,25.74
2022-07-30T02:36:43.973Z,25.73
2022-07-30T02:39:14.974Z,25.71
2022-07-30T02:41:49.683Z,25.68
2022-07-30T02:44:22.196Z,25.60
2022-07-30T02:46:52.650Z,25.64
2022-07-30T02:49:32.347Z,25.61
2022-07-30T02:52:01.854Z,25.59
2022-07-30T02:54:32.180Z,25.57
2022-07-30T02:57:02.090Z,25.56
2022-07-30T02:59:34.360Z,25.53
2022-07-30T03:02:04.728Z,25.52
2022-07-30T03:04:33.964Z,25.49
2022-07-30T03:07:08.120Z,25.47
2022-07-30T03:09:51.071Z,24.89
2022-07-30T03:12:21.083Z,25.42
2022-07-30T03:14:51.799Z,25.41
2022-07-30T03:17:21.604Z,25.40
2022-07-30T03:19:51.055Z,25.10
2022-07-30T03:22:20.980Z,25.37
2022-07-30T03:24:50.522Z,25.37
2022-07-30T03:27:20.229Z,25.35
2022-07-30T03:29:50.745Z,25.34
2022-07-30T03:32:19.021Z,25.33
2022-07-30T03:34:55.210Z,25.34
2022-07-30T03:37:26.530Z,25.33
2022-07-30T03:39:55.281Z,25.33
2022-07-30T03:42:23.913Z,25.34
2022-07-30T03:44:54.108Z,25.35
2022-07-30T03:47:24.036Z,25.35
2022-07-30T03:49:53.505Z,25.36
2022-07-30T03:52:22.215Z,25.39
2022-07-30T03:54:50.714Z,25.40
2022-07-30T03:57:37.581Z,25.39
2022-07-30T04:00:08.761Z,25.41
2022-07-30T04:02:44.736Z,25.41
2022-07-30T04:05:28.592Z,25.41
2022-07-30T04:08:09.371Z,25.42
2022-07-30T04:10:37.413Z,25.43
2022-07-30T04:13:43.620Z,25.41
2022-07-30T04:16:39.853Z,25.43
2022-07-30T04:19:11.765Z,25.41
2022-07-30T04:21:42.681Z,25.42
2022-07-30T04:24:13.129Z,25.42
2022-07-30T04:26:41.362Z,25.41
2022-07-30T04:29:16.619Z,25.43
2022-07-30T04:31:48.112Z,25.38
2022-07-30T04:34:36.521Z,25.40
2022-07-30T04:37:07.986Z,25.39
2022-07-30T04:39:36.452Z,25.40
2022-07-30T04:42:04.738Z,25.37
2022-07-30T04:44:32.769Z,25.35
2022-07-30T04:47:28.192Z,25.37
2022-07-30T04:50:23.922Z,25.36
2022-07-30T04:52:54.777Z,25.36
2022-07-30T04:55:28.553Z,25.34
2022-07-30T04:57:58.917Z,25.17
2022-07-30T05:00:31.008Z,25.34
2022-07-30T05:03:04.585Z,25.34
2022-07-30T05:05:34.264Z,25.33
2022-07-30T05:08:03.678Z,25.33
2022-07-30T05:10:32.813Z,25.33
2022-07-30T05:13:01.546Z,25.33
2022-07-30T05:15:36.170Z,25.33
2022-07-30T05:18:09.668Z,25.34
2022-07-30T05:20:41.793Z,25.34
2022-07-30T05:23:21.821Z,25.33
2022-07-30T05:26:10.304Z,25.23
2022-07-30T05:28:44.221Z,25.33
2022-07-30T05:31:17.061Z,25.33
2022-07-30T05:33:54.313Z,25.34
2022-07-30T05:36:26.705Z,25.34
2022-07-30T05:38:55.445Z,25.34
2022-07-30T05:41:52.293Z,25.33
2022-07-30T05:44:24.372Z,25.35
2022-07-30T05:46:53.383Z,25.36
2022-07-30T05:49:22.811Z,25.36
2022-07-30T05:51:51.113Z,25.37
2022-07-30T05:54:19.619Z,25.37
2022-07-30T05:57:10.698Z,25.35
2022-07-30T05:59:40.103Z,25.37
2022-07-30T06:02:13.673Z,25.37
2022-07-30T06:04:58.391Z,25.37
2022-07-30T06:07:26.589Z,25.38
2022-07-30T06:10:00.100Z,25.37
2022-07-30T06:12:29.413Z,25.37
2022-07-30T06:14:58.082Z,25.37
2022-07-30T06:17:44.060Z,25.38
2022-07-30T06:20:30.093Z,25.36
2022-07-30T06:23:21.638Z,25.35
2022-07-30T06:26:16.121Z,25.36
2022-07-30T06:28:44.940Z,25.38
2022-07-30T06:31:18.494Z,25.39
2022-07-30T06:33:47.301Z,25.41
2022-07-30T06:36:17.281Z,25.43
2022-07-30T06:38:59.056Z,25.43
2022-07-30T06:41:42.025Z,25.46
2022-07-30T06:44:12.612Z,25.49
2022-07-30T06:47:06.858Z,25.54
2022-07-30T06:49:36.886Z,25.59
2022-07-30T06:52:07.971Z,25.56
2022-07-30T06:54:36.790Z,25.64
2022-07-30T06:57:27.934Z,25.67
2022-07-30T06:59:58.924Z,25.71
2022-07-30T07:02:35.676Z,25.73
2022-07-30T07:05:10.335Z,25.77
2022-07-30T07:07:46.427Z,25.81
2022-07-30T07:10:24.731Z,25.83
2022-07-30T07:13:01.653Z,25.86
2022-07-30T07:15:37.344Z,25.90
2022-07-30T07:18:09.157Z,25.92
2022-07-30T07:20:39.757Z,25.94
2022-07-30T07:23:12.305Z,25.97
2022-07-30T07:25:41.882Z,25.98
2022-07-30T07:28:13.616Z,25.99
2022-07-30T07:30:45.410Z,26.00
2022-07-30T07:33:15.437Z,26.02
2022-07-30T07:35:49.362Z,26.04
2022-07-30T07:38:27.383Z,26.05
2022-07-30T07:40:56.561Z,26.06
2022-07-30T07:43:25.260Z,26.08
2022-07-30T07:45:55.912Z,26.09
2022-07-30T07:48:24.644Z,26.10
2022-07-30T07:51:00.636Z,26.12
2022-07-30T07:53:33.413Z,26.14
2022-07-30T07:56:01.559Z,26.13
2022-07-30T07:58:30.958Z,26.17
2022-07-30T08:01:01.735Z,26.19
2022-07-30T08:03:48.629Z,26.19
2022-07-30T08:06:45.661Z,26.20
2022-07-30T08:09:40.815Z,26.21
2022-07-30T08:12:33.138Z,26.21
2022-07-30T08:15:22.203Z,26.24
2022-07-30T08:18:13.438Z,26.25
2022-07-30T08:21:00.033Z,26.27
2022-07-30T08:23:32.618Z,26.26
2022-07-30T08:26:02.294Z,26.31
2022-07-30T08:28:35.775Z,26.32
2022-07-30T08:31:06.058Z,26.33
2022-07-30T08:33:34.346Z,26.36
2022-07-30T08:36:08.966Z,26.36
2022-07-30T08:38:38.224Z,26.36
2022-07-30T08:41:08.498Z,26.33
2022-07-30T08:43:37.645Z,26.34
2022-07-30T08:46:11.069Z,26.42
2022-07-30T08:51:23.600Z,26.41
2022-07-30T08:54:07.585Z,26.40
2022-07-30T08:56:38.284Z,26.42
2022-07-30T08:59:08.778Z,26.42
2022-07-30T09:01:37.242Z,26.27
2022-07-30T09:06:40.875Z,26.43
2022-07-30T09:09:10.377Z,26.42
2022-07-30T09:11:39.762Z,26.45
2022-07-30T09:14:13.022Z,26.45
2022-07-30T09:16:41.835Z,26.44
2022-07-30T09:19:16.192Z,26.45
2022-07-30T09:21:56.141Z,26.43
2022-07-30T09:24:43.536Z,26.45
2022-07-30T09:27:45.965Z,26.43
2022-07-30T09:30:45.941Z,26.44
2022-07-30T09:33:49.431Z,26.41
2022-07-30T09:36:36.054Z,26.42
2022-07-30T09:39:34.164Z,26.43
2022-07-30T09:42:22.624Z,26.43
2022-07-30T09:45:07.157Z,26.41
2022-07-30T09:47:36.825Z,26.47
2022-07-30T09:50:08.348Z,26.46
2022-07-30T09:52:36.996Z,26.49
2022-07-30T09:55:14.000Z,26.50
2022-07-30T09:57:57.626Z,26.50
2022-07-30T10:00:29.178Z,26.52
2022-07-30T10:03:21.649Z,26.53
2022-07-30T10:06:20.870Z,26.50
2022-07-30T10:08:51.178Z,26.52
2022-07-30T10:11:23.761Z,26.54
2022-07-30T10:13:59.253Z,26.54
2022-07-30T10:16:30.586Z,26.55
2022-07-30T10:19:00.641Z,26.55
2022-07-30T10:21:47.680Z,26.55
2022-07-30T10:24:36.640Z,26.03
2022-07-30T10:27:22.224Z,26.57
2022-07-30T10:30:17.713Z,26.57
2022-07-30T10:32:52.508Z,26.58
2022-07-30T10:35:35.070Z,26.44
2022-07-30T10:38:13.892Z,26.60
2022-07-30T10:40:49.371Z,26.59
2022-07-30T10:43:44.973Z,26.59
2022-07-30T10:46:23.016Z,26.60
2022-07-30T10:48:52.789Z,26.59
2022-07-30T10:51:25.512Z,26.58
2022-07-30T10:54:02.751Z,26.58
2022-07-30T10:56:30.934Z,26.58
2022-07-30T10:59:03.824Z,26.60
2022-07-30T11:02:08.860Z,26.59
2022-07-30T11:04:38.281Z,26.50
2022-07-30T11:07:29.388Z,26.59
2022-07-30T11:10:05.474Z,26.59
2022-07-30T11:12:57.099Z,26.57
2022-07-30T11:15:25.114Z,26.57
2022-07-30T11:18:12.383Z,26.59
2022-07-30T11:20:48.450Z,26.60
2022-07-30T11:23:40.068Z,26.60
2022-07-30T11:26:14.221Z,26.61
2022-07-30T11:28:45.119Z,26.64
2022-07-30T11:31:56.474Z,26.66
2022-07-30T11:34:29.856Z,26.68
2022-07-30T11:37:19.093Z,26.72
2022-07-30T11:40:13.158Z,26.76
2022-07-30T11:42:43.245Z,26.80
2022-07-30T11:45:27.146Z,26.70
2022-07-30T11:47:57.457Z,26.88
2022-07-30T11:50:30.181Z,26.94
2022-07-30T11:53:01.432Z,26.98
2022-07-30T11:55:31.433Z,27.01
2022-07-30T11:58:00.618Z,27.04
2022-07-30T12:00:36.525Z,27.08
2022-07-30T12:03:15.588Z,27.08
2022-07-30T12:05:45.018Z,26.99
2022-07-30T12:08:35.442Z,27.12
2022-07-30T12:11:04.605Z,27.12
2022-07-30T12:13:45.143Z,27.14
2022-07-30T12:16:18.154Z,27.15
2022-07-30T12:18:46.763Z,27.17
2022-07-30T12:21:16.781Z,27.17
2022-07-30T12:23:55.175Z,27.20
2022-07-30T12:26:24.706Z,27.10
2022-07-30T12:28:56.125Z,27.21
2022-07-30T12:31:24.406Z,27.22
2022-07-30T12:33:52.472Z,27.24
2022-07-30T12:36:29.467Z,27.25
2022-07-30T12:38:59.466Z,27.25
2022-07-30T12:41:43.547Z,27.18
2022-07-30T12:44:11.953Z,27.24
2022-07-30T12:46:42.204Z,27.24
2022-07-30T12:49:21.597Z,27.24
2022-07-30T12:51:57.469Z,27.24
2022-07-30T12:54:30.129Z,27.23
2022-07-30T12:57:00.665Z,27.24
2022-07-30T12:59:29.980Z,27.10
2022-07-30T13:02:00.497Z,27.24
2022-07-30T13:04:29.122Z,27.24
2022-07-30T13:07:08.021Z,27.26
2022-07-30T13:09:38.241Z,27.26
2022-07-30T13:12:07.113Z,27.20
2022-07-30T13:14:35.163Z,27.26
2022-07-30T13:17:04.264Z,27.25
2022-07-30T13:19:32.829Z,27.25
2022-07-30T13:22:00.824Z,27.24
2022-07-30T13:24:28.843Z,27.24
2022-07-30T13:26:58.150Z,27.27
2022-07-30T13:29:26.164Z,27.25
2022-07-30T13:31:54.097Z,27.25
2022-07-30T13:34:22.141Z,27.25
2022-07-30T13:36:50.122Z,27.26
2022-07-30T13:39:18.085Z,27.26
2022-07-30T13:41:46.042Z,27.22
2022-07-30T13:44:15.725Z,27.25
2022-07-30T13:46:43.656Z,27.24
2022-07-30T13:49:11.799Z,27.23
2022-07-30T13:51:39.864Z,27.24
2022-07-30T13:54:08.450Z,27.24
2022-07-30T13:56:40.926Z,27.23
2022-07-30T13:59:09.501Z,27.23
2022-07-30T14:01:39.235Z,27.24
2022-07-30T14:04:08.427Z,27.23
2022-07-30T14:06:36.493Z,27.23
2022-07-30T14:09:05.000Z,27.21
2022-07-30T14:11:33.177Z,27.23
2022-07-30T14:14:01.351Z,27.24
2022-07-30T14:16:44.771Z,27.27
2022-07-30T14:19:24.343Z,27.27
2022-07-30T14:21:53.980Z,27.29
2022-07-30T14:24:22.954Z,27.31
2022-07-30T14:26:57.332Z,27.32
2022-07-30T14:29:26.170Z,27.31
2022-07-30T14:31:54.584Z,27.37
2022-07-30T14:34:24.212Z,27.39
2022-07-30T14:36:52.280Z,27.39
2022-07-30T14:39:20.959Z,27.40
2022-07-30T14:41:52.398Z,27.41
2022-07-30T14:44:24.092Z,27.43
2022-07-30T14:46:52.936Z,27.41
2022-07-30T14:49:24.167Z,27.42
2022-07-30T14:51:53.314Z,27.40
2022-07-30T14:54:21.514Z,27.41
2022-07-30T14:56:52.586Z,27.39
2022-07-30T14:59:23.013Z,27.40
2022-07-30T15:01:51.333Z,27.40
2022-07-30T15:04:19.502Z,27.39
2022-07-30T15:06:48.970Z,27.39
2022-07-30T15:09:16.942Z,27.38
2022-07-30T15:12:09.036Z,27.37
2022-07-30T15:14:33.546Z,27.36
2022-07-30T15:17:04.233Z,27.37
2022-07-30T15:19:33.050Z,27.35
2022-07-30T15:22:03.508Z,27.36
2022-07-30T15:24:32.380Z,27.28
2022-07-30T15:27:00.472Z,27.34
2022-07-30T15:29:30.174Z,27.34
2022-07-30T15:32:00.207Z,27.34
2022-07-30T15:34:34.071Z,27.35
2022-07-30T15:37:05.369Z,27.14
2022-07-30T15:39:34.225Z,27.34
2022-07-30T15:42:03.478Z,27.33
2022-07-30T15:44:31.708Z,27.34
2022-07-30T15:47:00.105Z,27.33
2022-07-30T15:49:28.958Z,27.33
2022-07-30T15:51:57.415Z,27.34
2022-07-30T15:54:27.238Z,27.35
2022-07-30T15:57:01.423Z,27.35
2022-07-30T15:59:30.147Z,27.11
2022-07-30T16:01:58.267Z,27.35
2022-07-30T16:04:31.394Z,27.35
2022-07-30T16:07:00.742Z,27.35
2022-07-30T16:09:30.251Z,27.36
2022-07-30T16:11:58.352Z,27.34
2022-07-30T16:14:27.032Z,27.35
2022-07-30T16:16:55.100Z,27.34
2022-07-30T16:19:23.119Z,27.35
2022-07-30T16:21:51.128Z,27.35
2022-07-30T16:24:19.718Z,27.35
2022-07-30T16:26:50.593Z,27.35
2022-07-30T16:29:18.976Z,27.35
2022-07-30T16:31:47.420Z,27.35
2022-07-30T16:34:15.546Z,27.32
2022-07-30T16:36:43.907Z,27.35
2022-07-30T16:39:12.311Z,27.35
2022-07-30T16:41:41.265Z,27.35
2022-07-30T16:44:11.005Z,27.36
2022-07-30T16:46:38.958Z,27.34
2022-07-30T16:49:07.259Z,27.33
2022-07-30T16:51:35.309Z,27.35
2022-07-30T16:54:03.509Z,27.33
2022-07-30T16:56:31.501Z,27.30
2022-07-30T16:58:59.867Z,27.32
2022-07-30T17:01:29.792Z,27.33
2022-07-30T17:03:57.842Z,27.30
2022-07-30T17:06:26.032Z,27.30
2022-07-30T17:08:53.974Z,27.30
2022-07-30T17:11:46.412Z,27.29
2022-07-30T17:14:10.094Z,27.27
2022-07-30T17:16:42.184Z,27.28
2022-07-30T17:19:10.202Z,27.26
2022-07-30T17:21:39.021Z,27.27
2022-07-30T17:24:11.447Z,27.26
2022-07-30T17:26:41.774Z,27.11
2022-07-30T17:29:13.960Z,27.24
2022-07-30T17:31:45.221Z,27.24
2022-07-30T17:34:14.777Z,27.24
2022-07-30T17:36:52.000Z,27.24
2022-07-30T17:40:04.280Z,27.23
2022-07-30T17:42:10.460Z,27.18
2022-07-30T17:44:39.336Z,27.22
2022-07-30T17:47:15.022Z,27.20
2022-07-30T17:49:44.573Z,27.18
2022-07-30T17:52:12.791Z,27.20
2022-07-30T17:54:41.019Z,27.18
2022-07-30T17:57:09.127Z,27.16
2022-07-30T17:59:37.071Z,27.17
2022-07-30T18:02:05.903Z,27.17
2022-07-30T18:04:35.838Z,27.14
2022-07-30T18:07:04.236Z,27.16
2022-07-30T18:09:37.810Z,27.15
2022-07-30T18:12:09.421Z,27.13
2022-07-30T18:14:37.468Z,27.13
2022-07-30T18:17:07.454Z,27.10
2022-07-30T18:19:39.501Z,27.10
2022-07-30T18:22:08.971Z,27.08
2022-07-30T18:24:40.454Z,27.06
2022-07-30T18:27:12.680Z,26.80
2022-07-30T18:29:40.675Z,27.04
2022-07-30T18:32:09.257Z,27.05
2022-07-30T18:34:37.405Z,27.03
2022-07-30T18:37:06.797Z,27.05
2022-07-30T18:39:34.867Z,27.03
2022-07-30T18:42:03.688Z,27.04
2022-07-30T18:44:32.381Z,27.03
2022-07-30T18:47:00.681Z,27.04
2022-07-30T18:49:37.421Z,27.05
2022-07-30T18:52:08.404Z,27.06
2022-07-30T18:54:37.757Z,27.07
2022-07-30T18:57:06.016Z,27.08
2022-07-30T18:59:33.991Z,27.09
2022-07-30T19:02:04.408Z,27.08
2022-07-30T19:04:32.555Z,27.09
2022-07-30T19:07:00.648Z,27.10
2022-07-30T19:09:30.016Z,27.10
2022-07-30T19:11:58.028Z,27.11
2022-07-30T19:14:26.105Z,27.12
2022-07-30T19:16:54.153Z,27.12
2022-07-30T19:19:27.534Z,27.13
2022-07-30T19:21:55.661Z,27.14
2022-07-30T19:24:23.677Z,27.11
2022-07-30T19:26:57.290Z,27.14
2022-07-30T19:29:25.273Z,27.14
2022-07-30T19:31:53.257Z,27.14
2022-07-30T19:34:21.276Z,27.15
2022-07-30T19:36:49.497Z,27.14
2022-07-30T19:39:21.781Z,27.16
2022-07-30T19:41:51.092Z,27.17
2022-07-30T19:44:20.697Z,27.17
2022-07-30T19:46:51.420Z,27.17
2022-07-30T19:49:19.922Z,27.17
2022-07-30T19:52:07.057Z,27.16
2022-07-30T19:54:38.233Z,27.17
2022-07-30T19:57:06.298Z,27.17
2022-07-30T20:02:23.684Z,27.16
2022-07-30T20:04:51.709Z,27.17
2022-07-30T20:07:19.664Z,27.16
2022-07-30T20:09:48.561Z,27.15
2022-07-30T20:12:17.374Z,26.94
2022-07-30T20:14:46.696Z,27.15
2022-07-30T20:17:15.797Z,27.15
2022-07-30T20:19:47.747Z,27.12
2022-07-30T20:22:16.790Z,27.14
2022-07-30T20:24:45.254Z,27.14
2022-07-30T20:27:37.208Z,27.14
2022-07-30T20:30:02.728Z,27.13
2022-07-30T20:32:30.796Z,27.12
2022-07-30T20:34:58.722Z,27.13
2022-07-30T20:37:27.527Z,27.12
2022-07-30T20:39:55.987Z,27.10
2022-07-30T20:42:24.268Z,27.12
2022-07-30T20:44:56.893Z,27.12
2022-07-30T20:47:34.580Z,27.12
2022-07-30T20:50:09.399Z,27.12
2022-07-30T20:52:39.317Z,27.11
2022-07-30T20:55:08.516Z,27.12
2022-07-30T20:57:56.783Z,27.12
2022-07-30T21:00:25.705Z,27.11
2022-07-30T21:02:55.070Z,27.13
2022-07-30T21:05:23.346Z,27.12
2022-07-30T21:07:56.446Z,27.11
2022-07-30T21:10:26.215Z,27.11
2022-07-30T21:13:03.053Z,27.13
2022-07-30T21:15:32.920Z,27.13
2022-07-30T21:18:02.980Z,27.13
2022-07-30T21:20:32.007Z,27.13
2022-07-30T21:23:10.127Z,27.15
2022-07-30T21:26:02.095Z,27.13
2022-07-30T21:28:28.262Z,27.11
2022-07-30T21:30:57.279Z,27.11
2022-07-30T21:33:31.525Z,27.12
2022-07-30T21:35:59.916Z,27.10
2022-07-30T21:38:28.605Z,27.08
2022-07-30T21:40:58.498Z,27.08
2022-07-30T21:43:30.124Z,27.08
2022-07-30T21:45:58.445Z,27.07
2022-07-30T21:48:28.121Z,27.07
2022-07-30T21:50:56.949Z,27.06
2022-07-30T21:53:29.547Z,27.06
2022-07-30T21:56:13.325Z,27.04
2022-07-30T21:58:41.346Z,27.02
2022-07-30T22:01:17.998Z,26.95
2022-07-30T22:04:04.050Z,27.05
2022-07-30T22:06:37.933Z,27.04
2022-07-30T22:09:19.376Z,27.06
2022-07-30T22:11:56.318Z,27.04
2022-07-30T22:14:25.488Z,27.06
2022-07-30T22:16:54.583Z,27.06
2022-07-30T22:19:25.784Z,27.07
2022-07-30T22:21:54.316Z,27.06
2022-07-30T22:24:29.893Z,27.06
2022-07-30T22:27:01.516Z,27.07
2022-07-30T22:29:34.402Z,27.07
2022-07-30T22:32:06.275Z,27.06
2022-07-30T22:34:37.373Z,27.08
2022-07-30T22:37:07.661Z,27.05
2022-07-30T22:39:50.246Z,27.05
2022-07-30T22:42:20.008Z,27.04
2022-07-30T22:44:48.166Z,27.06
2022-07-30T22:47:20.861Z,27.05
2022-07-30T22:49:54.989Z,27.04
2022-07-30T22:52:25.361Z,27.02
2022-07-30T22:54:54.648Z,27.01
2022-07-30T22:57:23.519Z,27.00
2022-07-30T22:59:59.927Z,26.99
2022-07-30T23:02:29.817Z,26.97
2022-07-30T23:04:59.398Z,26.96
2022-07-30T23:07:38.877Z,26.95
2022-07-30T23:10:12.294Z,26.95
2022-07-30T23:12:15.621Z,27.17
2022-07-30T23:12:48.404Z,26.92
2022-07-30T23:15:18.310Z,26.92
2022-07-30T23:17:46.650Z,26.92
2022-07-30T23:20:17.678Z,26.94
2022-07-30T23:22:45.669Z,26.93
2022-07-30T23:25:14.332Z,26.91
2022-07-30T23:27:42.710Z,26.92
2022-07-30T23:30:12.388Z,26.91
2022-07-30T23:32:40.913Z,26.91
2022-07-30T23:35:10.347Z,26.90
2022-07-30T23:37:48.918Z,26.88
2022-07-30T23:40:18.309Z,26.88
2022-07-30T23:42:46.463Z,26.87
2022-07-30T23:45:14.619Z,26.85
2022-07-30T23:47:56.563Z,26.84
2022-07-30T23:50:31.170Z,26.84
2022-07-30T23:53:00.721Z,26.84
2022-07-30T23:55:28.929Z,26.83
2022-07-30T23:57:57.317Z,26.83
